createdAt,value
2023-02-16T00:10:12.733Z,41.08
2023-02-16T00:54:00.975Z,38.22
2023-02-16T00:59:08.888Z,41.08
2023-02-16T01:04:17.039Z,38.75
2023-02-16T01:09:40.272Z,37.22
2023-02-16T01:14:45.849Z,41.10
2023-02-16T01:19:47.509Z,40.95
2023-02-16T01:24:51.337Z,42.30
2023-02-16T01:29:53.970Z,40.42
2023-02-16T01:34:55.664Z,42.15
2023-02-16T01:39:57.139Z,40.28
2023-02-16T01:45:06.552Z,41.28
2023-02-16T01:50:46.748Z,43.53
2023-02-16T01:55:53.850Z,37.35
2023-02-16T02:01:00.994Z,39.33
2023-02-16T02:06:06.148Z,38.15
2023-02-16T02:11:28.109Z,40.97
2023-02-16T02:16:29.825Z,37.92
2023-02-16T02:22:08.390Z,38.53
2023-02-16T02:27:38.836Z,39.85
2023-02-16T02:33:07.828Z,42.10
2023-02-16T02:38:21.881Z,43.03
2023-02-16T02:43:37.549Z,40.47
2023-02-16T02:48:42.544Z,41.78
2023-02-16T02:54:25.703Z,42.55
2023-02-16T02:59:53.597Z,39.88
2023-02-16T03:04:57.630Z,41.72
2023-02-16T03:10:22.073Z,39.72
2023-02-16T03:15:29.060Z,39.08
2023-02-16T03:26:19.074Z,41.85
2023-02-16T03:31:27.556Z,43.35
2023-02-16T03:36:33.355Z,38.85
2023-02-16T03:41:59.503Z,40.85
2023-02-16T03:47:05.375Z,39.25
2023-02-16T03:52:09.692Z,41.88
2023-02-16T03:57:11.367Z,41.15
2023-02-16T04:02:13.130Z,40.20
2023-02-16T04:07:23.550Z,43.90
2023-02-16T04:12:36.696Z,44.03
2023-02-16T04:17:46.989Z,42.42
2023-02-16T04:23:02.014Z,40.67
2023-02-16T04:28:11.026Z,42.30
2023-02-16T04:33:15.887Z,41.50
2023-02-16T04:38:22.735Z,38.58
2023-02-16T04:43:26.018Z,41.83
2023-02-16T04:48:33.092Z,40.30
2023-02-16T04:53:40.481Z,41.58
2023-02-16T04:59:05.124Z,41.42
2023-02-16T05:04:07.008Z,42.47
2023-02-16T05:09:11.742Z,41.28
2023-02-16T05:14:42.583Z,41.05
2023-02-16T05:19:47.254Z,41.97
2023-02-16T05:24:49.580Z,43.67
2023-02-16T05:29:53.907Z,41.67
2023-02-16T05:34:55.394Z,41.42
2023-02-16T05:39:57.195Z,42.38
2023-02-16T05:44:58.683Z,42.80
2023-02-16T05:50:01.960Z,41.08
2023-02-16T05:55:10.678Z,43.38
2023-02-16T06:00:19.340Z,40.80
2023-02-16T06:05:32.332Z,44.97
2023-02-16T06:10:38.504Z,42.47
2023-02-16T06:15:46.691Z,44.57
2023-02-16T06:20:51.259Z,41.40
2023-02-16T06:25:58.710Z,45.35
2023-02-16T06:31:00.305Z,45.97
2023-02-16T06:36:02.352Z,42.75
2023-02-16T06:41:29.548Z,45.53
2023-02-16T06:46:35.542Z,44.13
2023-02-16T06:51:46.380Z,46.53
2023-02-16T06:58:10.373Z,46.10
2023-02-16T07:03:16.593Z,46.67
2023-02-16T07:28:45.952Z,47.53
2023-02-16T07:34:21.767Z,43.47
2023-02-16T07:46:02.711Z,45.17
2023-02-16T07:51:16.034Z,44.55
2023-02-16T07:56:28.861Z,44.80
2023-02-16T08:01:42.724Z,43.25
2023-02-16T08:17:44.727Z,41.75
2023-02-16T08:23:04.292Z,44.28
2023-02-16T08:28:07.164Z,44.45
2023-02-16T08:46:15.820Z,42.13
2023-02-16T08:51:41.443Z,42.13
2023-02-16T08:57:03.741Z,39.17
2023-02-16T09:02:06.080Z,38.97
2023-02-16T09:07:18.263Z,38.13
2023-02-16T09:12:22.951Z,39.22
2023-02-16T09:17:29.459Z,41.08
2023-02-16T09:22:38.096Z,41.60
2023-02-16T09:27:57.981Z,39.80
2023-02-16T09:33:09.012Z,38.08
2023-02-16T09:38:19.294Z,32.38
2023-02-16T09:44:10.388Z,39.25
2023-02-16T09:49:44.074Z,36.70
2023-02-16T09:54:50.917Z,36.88
2023-02-16T10:05:17.475Z,36.95
2023-02-16T10:10:26.083Z,39.40
2023-02-16T10:15:32.365Z,38.75
2023-02-16T10:20:43.707Z,39.40
2023-02-16T10:26:01.561Z,38.97
2023-02-16T10:31:13.342Z,38.38
2023-02-16T10:36:32.090Z,40.88
2023-02-16T10:42:10.999Z,40.30
2023-02-16T10:47:39.493Z,40.53
2023-02-16T10:52:43.924Z,38.00
2023-02-16T10:58:06.033Z,40.20
2023-02-16T11:03:13.210Z,38.17
2023-02-16T11:08:17.633Z,39.53
2023-02-16T11:13:33.022Z,40.15
2023-02-16T11:18:43.549Z,39.03
2023-02-16T11:24:02.823Z,37.50
2023-02-16T11:29:19.474Z,39.40
2023-02-16T11:34:33.218Z,37.15
2023-02-16T11:39:39.394Z,41.85
2023-02-16T11:44:57.632Z,45.10
2023-02-16T11:50:23.739Z,44.05
2023-02-16T11:55:36.547Z,43.53
2023-02-16T12:01:02.067Z,45.45
2023-02-16T12:06:12.007Z,44.05
2023-02-16T12:11:25.527Z,44.85
2023-02-16T12:17:02.324Z,43.97
2023-02-16T12:22:15.186Z,42.78
2023-02-16T12:27:25.338Z,39.88
2023-02-16T12:32:52.310Z,42.83
2023-02-16T12:37:56.963Z,42.88
2023-02-16T12:43:32.309Z,43.97
2023-02-16T12:48:51.590Z,40.80
2023-02-16T12:54:22.634Z,43.30
2023-02-16T12:59:46.230Z,41.85
2023-02-16T13:04:56.754Z,39.85
2023-02-16T13:10:25.233Z,37.88
2023-02-16T13:15:42.475Z,39.50
2023-02-16T13:20:49.614Z,37.83
2023-02-16T13:26:18.043Z,33.95
2023-02-16T13:31:54.606Z,36.05
2023-02-16T13:37:06.051Z,33.80
2023-02-16T13:42:42.761Z,34.40
2023-02-16T13:47:49.379Z,35.17
2023-02-16T13:52:53.443Z,36.22
2023-02-16T13:58:01.287Z,34.45
2023-02-16T14:03:12.265Z,33.15
2023-02-16T14:08:19.004Z,32.90
2023-02-16T14:13:38.596Z,31.20
2023-02-16T14:18:43.261Z,31.50
2023-02-16T14:23:46.261Z,31.75
2023-02-16T14:29:08.235Z,29.65
2023-02-16T14:34:19.435Z,28.60
2023-02-16T14:39:22.864Z,29.55
2023-02-16T14:45:03.525Z,31.55
2023-02-16T14:50:17.214Z,25.70
2023-02-16T14:56:01.470Z,28.65
2023-02-16T15:01:06.109Z,23.70
2023-02-16T15:06:11.492Z,24.88
2023-02-16T15:11:17.141Z,23.42
2023-02-16T15:16:21.038Z,24.87
2023-02-16T15:21:28.558Z,26.83
2023-02-16T15:26:35.453Z,21.17
2023-02-16T15:31:38.263Z,23.30
2023-02-16T15:36:42.878Z,21.67
2023-02-16T15:41:49.529Z,22.70
2023-02-16T15:51:57.802Z,20.95
2023-02-16T15:57:21.787Z,20.45
2023-02-16T16:02:39.770Z,22.00
2023-02-16T16:07:41.848Z,20.88
2023-02-16T16:12:44.505Z,20.17
2023-02-16T16:17:46.751Z,20.40
2023-02-16T16:22:59.702Z,20.95
2023-02-16T16:28:10.306Z,20.00
2023-02-16T16:33:13.971Z,23.98
2023-02-16T16:38:27.959Z,19.77
2023-02-16T16:43:37.245Z,18.58
2023-02-16T16:48:46.667Z,20.83
2023-02-16T16:54:05.592Z,22.80
2023-02-16T16:59:07.702Z,22.42
2023-02-16T17:04:10.797Z,24.85
2023-02-16T17:09:15.833Z,24.25
2023-02-16T17:14:19.968Z,24.92
2023-02-16T17:19:23.069Z,25.17
2023-02-16T17:24:25.462Z,21.23
2023-02-16T17:29:26.946Z,25.42
2023-02-16T17:34:32.482Z,24.08
2023-02-16T17:39:35.144Z,27.52
2023-02-16T17:44:36.597Z,28.92
2023-02-16T17:49:38.627Z,27.25
2023-02-16T17:54:40.142Z,29.23
2023-02-16T17:59:42.203Z,29.80
2023-02-16T18:04:43.845Z,28.10
2023-02-16T18:09:46.992Z,24.25
2023-02-16T18:14:48.484Z,25.95
2023-02-16T18:19:50.005Z,24.20
2023-02-16T18:24:51.596Z,26.92
2023-02-16T18:29:53.250Z,27.33
2023-02-16T18:35:00.960Z,26.40
2023-02-16T18:40:03.035Z,29.15
2023-02-16T18:45:06.175Z,27.42
2023-02-16T18:50:08.112Z,27.92
2023-02-16T18:55:10.905Z,26.48
2023-02-16T19:00:14.838Z,27.70
2023-02-16T19:05:16.770Z,22.00
2023-02-16T19:10:19.441Z,24.70
2023-02-16T19:15:21.065Z,24.48
2023-02-16T19:20:23.998Z,24.35
2023-02-16T19:25:26.852Z,26.85
2023-02-16T19:30:32.126Z,24.58
2023-02-16T19:35:38.244Z,24.35
2023-02-16T19:40:44.039Z,21.42
2023-02-16T19:45:49.034Z,25.47
2023-02-16T19:51:20.627Z,22.27
2023-02-16T19:56:36.680Z,23.23
2023-02-16T20:01:44.021Z,24.43
2023-02-16T20:06:57.917Z,26.00
2023-02-16T20:12:04.729Z,23.30
2023-02-16T20:17:06.711Z,22.88
2023-02-16T20:22:14.039Z,20.48
2023-02-16T20:27:18.311Z,22.42
2023-02-16T20:32:24.835Z,22.80
2023-02-16T20:37:39.111Z,23.98
2023-02-16T20:42:40.791Z,23.10
2023-02-16T20:47:50.306Z,24.70
2023-02-16T20:52:54.463Z,23.30
2023-02-16T20:58:00.357Z,22.85
2023-02-16T21:03:19.030Z,24.70
2023-02-16T21:08:20.894Z,23.00
2023-02-16T21:13:24.683Z,25.70
2023-02-16T21:18:26.901Z,27.17
2023-02-16T21:23:36.256Z,23.00
2023-02-16T21:34:07.756Z,25.15
2023-02-16T21:39:09.325Z,23.27
2023-02-16T21:44:17.857Z,23.33
2023-02-16T21:49:21.448Z,19.33
2023-02-16T21:54:42.951Z,22.20
2023-02-16T21:59:50.478Z,17.45
2023-02-16T22:04:53.259Z,18.42
2023-02-16T22:09:54.860Z,22.42
2023-02-16T22:14:56.491Z,13.02
2023-02-16T22:20:09.413Z,18.73
2023-02-16T22:25:13.578Z,7.32
2023-02-16T22:30:17.802Z,16.98
2023-02-16T22:35:22.507Z,13.68
2023-02-16T22:40:24.025Z,12.80
2023-02-16T22:45:27.051Z,10.27
2023-02-16T22:50:30.423Z,9.65
2023-02-16T22:55:32.090Z,9.80
2023-02-16T23:00:35.694Z,8.85
2023-02-16T23:05:37.841Z,7.72
2023-02-16T23:10:59.884Z,8.52
2023-02-16T23:16:10.847Z,8.23
2023-02-16T23:21:24.148Z,11.07
2023-02-16T23:26:33.396Z,11.73
2023-02-16T23:31:39.549Z,11.00
2023-02-16T23:36:41.606Z,11.27
2023-02-16T23:41:45.163Z,10.50
2023-02-16T23:46:46.820Z,11.30
2023-02-16T23:51:49.438Z,9.10
2023-02-16T23:56:52.781Z,11.95
